Time;durP1;ratioP1;P1;durP2;ratioP2;P2;SDS_P1;SDS_P2;PMS_P1;PMS_P2;Temp;Humidity;BMP_temperature;BMP_pressure;BME280_temperature;BME280_humidity;BME280_pressure;Samples;Min_cycle;Max_cycle;Signal;HPM_P1;HPM_P2
2024/01/07 00:00:30;;;;;;;16.27;7.43;;;3.80;99.90;;;;;;4933981;29;20039;-87
2024/01/07 00:02:55;;;;;;;15.80;7.50;;;3.80;99.90;;;;;;4941746;29;20062;-87
2024/01/07 00:05:25;;;;;;;12.57;6.55;;;3.80;99.90;;;;;;4920649;29;20044;-87
2024/01/07 00:07:51;;;;;;;13.02;5.93;;;3.80;99.90;;;;;;4935042;29;20020;-86
2024/01/07 00:10:18;;;;;;;16.13;6.18;;;3.80;99.90;;;;;;4948044;28;20522;-87
2024/01/07 00:12:45;;;;;;;12.40;5.97;;;3.80;99.90;;;;;;4945550;28;20026;-85
2024/01/07 00:15:11;;;;;;;13.60;6.30;;;3.80;99.90;;;;;;4946192;28;20031;-86
2024/01/07 00:17:38;;;;;;;10.00;5.75;;;3.70;99.90;;;;;;4950054;28;20043;-86
2024/01/07 00:20:05;;;;;;;10.15;6.28;;;3.70;99.90;;;;;;4937848;28;20039;-85
2024/01/07 00:22:30;;;;;;;14.50;5.85;;;3.70;99.90;;;;;;4956295;28;20063;-88
2024/01/07 00:24:58;;;;;;;11.35;6.07;;;3.70;99.90;;;;;;4956685;28;20065;-85
2024/01/07 00:27:26;;;;;;;11.38;6.35;;;3.60;99.90;;;;;;4956035;28;20030;-87
2024/01/07 00:29:54;;;;;;;13.30;6.45;;;3.60;99.90;;;;;;4973723;28;20029;-85
2024/01/07 00:32:19;;;;;;;19.05;7.68;;;3.60;99.90;;;;;;4970457;28;20065;-86
2024/01/07 00:34:45;;;;;;;13.27;6.20;;;3.60;99.90;;;;;;4973413;28;20070;-86
2024/01/07 00:37:11;;;;;;;13.88;6.43;;;3.60;99.90;;;;;;4973868;28;20133;-86
2024/01/07 00:39:37;;;;;;;13.10;6.50;;;3.60;99.90;;;;;;4959729;28;20033;-86
2024/01/07 00:42:05;;;;;;;10.32;6.18;;;3.60;99.90;;;;;;4959359;28;20027;-87
2024/01/07 00:44:30;;;;;;;12.65;7.10;;;3.60;99.90;;;;;;4959258;28;20023;-89
2024/01/07 00:46:56;;;;;;;20.25;8.60;;;3.60;99.90;;;;;;4976512;28;20057;-86
2024/01/07 00:49:23;;;;;;;19.02;8.23;;;3.60;99.90;;;;;;4959309;28;20027;-86
2024/01/07 00:51:49;;;;;;;17.83;8.85;;;3.60;99.90;;;;;;4958921;28;20037;-86
2024/01/07 00:54:14;;;;;;;13.43;7.72;;;3.60;99.90;;;;;;4958901;28;20027;-87
2024/01/07 00:56:40;;;;;;;13.48;7.70;;;3.60;99.90;;;;;;4976082;28;20058;-85
2024/01/07 00:59:06;;;;;;;19.35;8.65;;;3.70;99.90;;;;;;4976047;28;20023;-86
2024/01/07 01:01:31;;;;;;;13.45;7.68;;;3.70;99.90;;;;;;4976506;28;20086;-86
2024/01/07 01:03:57;;;;;;;20.55;8.88;;;3.70;99.90;;;;;;4942740;28;20037;-86
2024/01/07 01:06:23;;;;;;;17.75;8.60;;;3.70;99.90;;;;;;4958619;28;20022;-86
2024/01/07 01:08:49;;;;;;;16.67;8.90;;;3.70;99.90;;;;;;4953038;29;20408;-87
2024/01/07 01:11:15;;;;;;;19.85;9.10;;;3.70;99.90;;;;;;4955334;28;20027;-87
2024/01/07 01:13:44;;;;;;;16.23;8.90;;;3.80;99.90;;;;;;4955368;29;20074;-88
2024/01/07 01:16:10;;;;;;;19.45;9.30;;;3.80;99.90;;;;;;4955494;29;20034;-87
2024/01/07 01:18:35;;;;;;;21.88;9.13;;;3.80;99.90;;;;;;4956030;29;20402;-87
2024/01/07 01:21:02;;;;;;;20.20;9.15;;;3.80;99.90;;;;;;4955874;29;20479;-87
2024/01/07 01:23:28;;;;;;;11.70;6.68;;;3.80;99.90;;;;;;4955984;29;20126;-86
2024/01/07 01:25:54;;;;;;;12.23;7.45;;;3.90;99.90;;;;;;4955284;29;20118;-86
2024/01/07 01:28:20;;;;;;;15.65;7.57;;;3.90;99.90;;;;;;4955244;29;20639;-88
2024/01/07 01:30:47;;;;;;;16.25;8.57;;;3.80;99.90;;;;;;4954597;29;20062;-86
2024/01/07 01:33:13;;;;;;;22.45;9.80;;;3.90;99.90;;;;;;4954693;29;20031;-87
2024/01/07 01:35:39;;;;;;;16.13;8.40;;;3.90;99.90;;;;;;4957682;29;20364;-86
2024/01/07 01:38:05;;;;;;;16.40;7.75;;;3.90;99.90;;;;;;4956597;29;20047;-86
2024/01/07 01:40:31;;;;;;;13.10;6.63;;;3.90;99.90;;;;;;4972798;28;20028;-86
2024/01/07 01:42:57;;;;;;;8.55;5.65;;;3.90;99.90;;;;;;4956841;28;20027;-86
2024/01/07 01:45:26;;;;;;;11.30;6.63;;;3.90;99.90;;;;;;4956348;28;20048;-86
2024/01/07 01:47:52;;;;;;;10.80;6.65;;;3.90;99.90;;;;;;4970615;28;20047;-87
2024/01/07 01:50:18;;;;;;;10.20;6.13;;;3.90;99.90;;;;;;4955430;29;20102;-86
2024/01/07 01:52:46;;;;;;;12.50;6.47;;;3.90;99.90;;;;;;4954954;29;20424;-86
2024/01/07 01:55:12;;;;;;;9.88;5.43;;;3.80;99.90;;;;;;4953978;29;20039;-86
2024/01/07 01:57:39;;;;;;;11.40;6.45;;;3.90;99.90;;;;;;4954195;29;20046;-85
2024/01/07 02:00:06;;;;;;;12.32;6.72;;;3.90;99.90;;;;;;4953165;29;20079;-86
2024/01/07 02:02:37;;;;;;;11.77;6.55;;;3.90;99.90;;;;;;4970140;28;20031;-86
2024/01/07 02:05:06;;;;;;;9.25;5.50;;;3.90;99.90;;;;;;4955688;29;20039;-86
2024/01/07 02:07:32;;;;;;;12.52;6.20;;;3.90;99.90;;;;;;4955039;29;20100;-86
2024/01/07 02:09:59;;;;;;;13.75;6.40;;;3.90;99.90;;;;;;4955724;29;20052;-86
2024/01/07 02:12:24;;;;;;;13.10;7.15;;;3.90;99.90;;;;;;4955840;28;20537;-86
2024/01/07 02:14:50;;;;;;;10.20;6.80;;;3.90;99.90;;;;;;4954933;29;20027;-86
2024/01/07 02:17:16;;;;;;;11.88;7.72;;;3.90;99.90;;;;;;4954602;29;20505;-87
2024/01/07 02:19:48;;;;;;;9.13;5.28;;;3.90;99.90;;;;;;4954764;29;20031;-86
2024/01/07 02:22:14;;;;;;;10.05;5.28;;;3.90;99.90;;;;;;4955876;29;20390;-86
2024/01/07 02:24:40;;;;;;;12.70;6.15;;;3.80;99.90;;;;;;4947715;29;20031;-86
2024/01/07 02:27:05;;;;;;;10.38;4.82;;;3.80;99.90;;;;;;4938094;29;20046;-86
2024/01/07 02:29:31;;;;;;;17.52;5.55;;;3.80;99.90;;;;;;4938877;29;20031;-88
2024/01/07 02:31:58;;;;;;;14.13;6.28;;;3.80;99.90;;;;;;4938577;29;20510;-86
2024/01/07 02:34:24;;;;;;;10.20;5.63;;;3.90;99.90;;;;;;4938381;29;20031;-87
2024/01/07 02:36:49;;;;;;;14.60;6.18;;;3.80;99.90;;;;;;4937970;29;20042;-87
2024/01/07 02:39:15;;;;;;;8.02;4.70;;;3.90;99.90;;;;;;4939685;29;20050;-86
2024/01/07 02:41:41;;;;;;;11.27;5.10;;;3.90;99.90;;;;;;4938019;29;20057;-87
2024/01/07 02:44:07;;;;;;;7.20;4.25;;;3.80;99.90;;;;;;4938041;29;20031;-87
2024/01/07 02:46:32;;;;;;;10.98;4.80;;;3.80;99.90;;;;;;4938484;29;20082;-85
2024/01/07 02:48:58;;;;;;;8.57;5.10;;;3.80;99.90;;;;;;4938195;29;20569;-86
2024/01/07 02:51:23;;;;;;;8.68;4.13;;;3.80;99.90;;;;;;4938109;29;20114;-86
2024/01/07 02:53:49;;;;;;;10.63;4.45;;;3.80;99.90;;;;;;4938150;29;20466;-85
2024/01/07 02:56:15;;;;;;;11.57;4.38;;;3.80;99.90;;;;;;4937789;29;20059;-86
2024/01/07 02:58:42;;;;;;;11.52;4.70;;;3.80;99.90;;;;;;4937564;29;20031;-85
2024/01/07 03:01:10;;;;;;;7.93;4.18;;;3.80;99.90;;;;;;4937435;29;20031;-86
2024/01/07 03:03:36;;;;;;;8.52;4.05;;;3.80;99.90;;;;;;4937960;29;20042;-85
2024/01/07 03:06:02;;;;;;;14.10;4.53;;;3.70;99.90;;;;;;4937854;29;20027;-86
2024/01/07 03:08:28;;;;;;;6.55;3.88;;;3.70;99.90;;;;;;4937698;28;20109;-85
2024/01/07 03:10:54;;;;;;;9.02;3.47;;;3.70;99.90;;;;;;4937874;29;20027;-85
2024/01/07 03:13:20;;;;;;;8.18;3.78;;;3.70;99.90;;;;;;4954806;28;20039;-86
2024/01/07 03:15:45;;;;;;;9.10;2.50;;;3.70;99.90;;;;;;4953779;29;20078;-86
2024/01/07 03:18:12;;;;;;;10.32;2.88;;;3.70;99.90;;;;;;4955248;29;20070;-87
2024/01/07 03:20:43;;;;;;;5.47;2.22;;;3.70;99.90;;;;;;4938526;29;20035;-87
2024/01/07 03:23:08;;;;;;;6.35;2.13;;;3.70;99.90;;;;;;4938717;29;20110;-85
2024/01/07 03:25:34;;;;;;;9.30;2.63;;;3.70;99.90;;;;;;4954345;29;20549;-86
2024/01/07 03:28:00;;;;;;;6.07;2.72;;;3.70;99.90;;;;;;4937592;29;20653;-86
2024/01/07 03:30:26;;;;;;;12.18;3.22;;;3.70;99.90;;;;;;4955081;29;20031;-86
2024/01/07 03:32:51;;;;;;;5.65;3.50;;;3.60;99.90;;;;;;4937585;29;20095;-85
2024/01/07 03:35:17;;;;;;;14.02;4.00;;;3.70;99.90;;;;;;4937356;29;20118;-85
2024/01/07 03:37:43;;;;;;;12.48;3.70;;;3.60;99.90;;;;;;4954505;29;20043;-85
2024/01/07 03:40:13;;;;;;;10.45;3.72;;;3.60;99.90;;;;;;4953592;29;20031;-86
2024/01/07 03:42:38;;;;;;;12.25;4.35;;;3.60;99.90;;;;;;4953337;29;20483;-85
2024/01/07 03:45:05;;;;;;;13.05;4.78;;;3.60;99.90;;;;;;4937457;29;20035;-85
2024/01/07 03:47:31;;;;;;;11.68;4.15;;;3.60;99.90;;;;;;4937574;29;20058;-85
2024/01/07 03:49:57;;;;;;;9.13;4.45;;;3.60;99.90;;;;;;4937543;29;20032;-87
2024/01/07 03:52:24;;;;;;;10.70;4.25;;;3.60;99.90;;;;;;4937588;29;20042;-87
2024/01/07 03:54:50;;;;;;;8.13;3.35;;;3.60;99.90;;;;;;4937701;29;20027;-87
2024/01/07 03:57:23;;;;;;;8.07;3.05;;;3.60;99.90;;;;;;4921580;29;20046;-87
2024/01/07 03:59:50;;;;;;;11.07;3.33;;;3.60;99.90;;;;;;4937582;29;20023;-87
2024/01/07 04:02:16;;;;;;;10.15;3.10;;;3.60;99.90;;;;;;4921973;29;20035;-87
2024/01/07 04:04:42;;;;;;;7.75;4.10;;;3.60;99.90;;;;;;4954666;29;20116;-87
2024/01/07 04:07:09;;;;;;;8.93;3.40;;;3.60;99.90;;;;;;4954622;29;20062;-87
2024/01/07 04:09:38;;;;;;;7.57;3.13;;;3.60;99.90;;;;;;4953180;29;20098;-87
2024/01/07 04:12:04;;;;;;;7.32;3.00;;;3.50;99.90;;;;;;4937993;29;20038;-86
2024/01/07 04:14:33;;;;;;;7.13;3.42;;;3.50;99.90;;;;;;4957087;29;20023;-88
2024/01/07 04:16:59;;;;;;;10.35;3.70;;;3.50;99.90;;;;;;4940867;29;20043;-88
2024/01/07 04:19:24;;;;;;;8.40;4.10;;;3.50;99.90;;;;;;4941165;29;20098;-89
2024/01/07 04:21:50;;;;;;;5.72;3.00;;;3.50;99.90;;;;;;4941297;29;20035;-87
2024/01/07 04:24:16;;;;;;;6.40;3.67;;;3.50;99.90;;;;;;4940816;29;20182;-87
2024/01/07 04:26:41;;;;;;;12.55;4.15;;;3.50;99.90;;;;;;4958216;29;20236;-87
2024/01/07 04:29:09;;;;;;;11.05;3.95;;;3.50;99.90;;;;;;4956702;29;20035;-87
2024/01/07 04:31:36;;;;;;;12.18;4.88;;;3.50;99.90;;;;;;4940784;29;20031;-87
2024/01/07 04:34:01;;;;;;;8.05;3.50;;;3.50;99.90;;;;;;4940703;29;20023;-87
2024/01/07 04:36:27;;;;;;;7.18;3.53;;;3.50;99.90;;;;;;4940562;29;20032;-86
2024/01/07 04:38:53;;;;;;;11.15;3.53;;;3.50;99.90;;;;;;4940369;29;20042;-87
2024/01/07 04:41:20;;;;;;;9.68;3.50;;;3.50;99.90;;;;;;4940940;29;20084;-87
2024/01/07 04:43:47;;;;;;;9.98;3.13;;;3.50;99.90;;;;;;4940432;29;20031;-87
2024/01/07 04:46:13;;;;;;;7.97;2.85;;;3.50;99.90;;;;;;4956448;29;20089;-86
2024/01/07 04:48:39;;;;;;;10.52;3.13;;;3.50;99.90;;;;;;4940403;29;20031;-86
2024/01/07 04:51:06;;;;;;;13.18;3.30;;;3.50;99.90;;;;;;4957495;29;20055;-86
2024/01/07 04:53:31;;;;;;;11.07;3.45;;;3.50;99.90;;;;;;4940525;29;20074;-86
2024/01/07 04:55:58;;;;;;;11.30;3.70;;;3.50;99.90;;;;;;4940352;29;20031;-86
2024/01/07 04:58:25;;;;;;;10.27;3.35;;;3.50;99.90;;;;;;4941158;29;20039;-86
2024/01/07 05:00:51;;;;;;;9.93;2.90;;;3.50;99.90;;;;;;4957159;29;20055;-86
2024/01/07 05:03:17;;;;;;;7.30;3.03;;;3.50;99.90;;;;;;4957721;29;20517;-85
2024/01/07 05:05:42;;;;;;;11.57;3.13;;;3.50;99.90;;;;;;4940926;29;20352;-85
2024/01/07 05:08:08;;;;;;;9.90;3.20;;;3.50;99.90;;;;;;4925399;28;20565;-86
2024/01/07 05:10:34;;;;;;;13.27;2.55;;;3.50;99.90;;;;;;4939737;29;20031;-86
2024/01/07 05:13:04;;;;;;;9.38;3.10;;;3.50;99.90;;;;;;4940853;29;20403;-84
2024/01/07 05:15:30;;;;;;;;;;;3.50;99.90;;;;;;4940818;29;20070;-85
2024/01/07 05:17:56;;;;;;;5.72;2.65;;;3.50;99.90;;;;;;4956180;29;20000;-85
2024/01/07 05:20:21;;;;;;;11.35;3.25;;;3.50;99.90;;;;;;4940453;29;20030;-85
2024/01/07 05:22:47;;;;;;;8.60;3.25;;;3.60;99.90;;;;;;4940190;28;20114;-85
2024/01/07 05:25:13;;;;;;;11.43;4.00;;;3.60;99.90;;;;;;4956629;29;20030;-86
2024/01/07 05:27:39;;;;;;;13.70;3.83;;;3.60;99.90;;;;;;4940549;29;20034;-85
2024/01/07 05:30:07;;;;;;;9.35;3.83;;;3.60;99.90;;;;;;4924021;29;20136;-85
2024/01/07 05:32:33;;;;;;;12.52;4.43;;;3.60;99.90;;;;;;4940270;29;20118;-85
2024/01/07 05:34:59;;;;;;;8.52;4.28;;;3.60;99.90;;;;;;4956136;29;20575;-85
2024/01/07 05:37:25;;;;;;;13.02;4.50;;;3.60;99.90;;;;;;4955157;29;20122;-85
2024/01/07 05:39:50;;;;;;;15.45;5.03;;;3.60;99.90;;;;;;4942278;29;20109;-84
2024/01/07 05:42:16;;;;;;;9.10;3.55;;;3.50;99.90;;;;;;4955063;29;20031;-85
2024/01/07 05:44:42;;;;;;;16.13;5.45;;;3.60;99.90;;;;;;4956366;29;20657;-85
2024/01/07 05:47:08;;;;;;;15.07;4.78;;;3.60;99.90;;;;;;4956078;29;20062;-85
2024/01/07 05:49:34;;;;;;;15.30;4.53;;;3.60;99.90;;;;;;4971027;28;20058;-86
2024/01/07 05:51:59;;;;;;;11.65;4.50;;;3.60;99.90;;;;;;4954894;29;20078;-86
2024/01/07 05:54:25;;;;;;;12.55;4.18;;;3.60;99.90;;;;;;4954935;29;20486;-85
2024/01/07 05:56:51;;;;;;;10.77;4.25;;;3.60;99.90;;;;;;4970759;28;20085;-85
2024/01/07 05:59:17;;;;;;;8.43;3.85;;;3.60;99.90;;;;;;4954614;29;20031;-85
2024/01/07 06:01:42;;;;;;;15.57;4.45;;;3.50;99.90;;;;;;4970936;28;20042;-85
2024/01/07 06:04:09;;;;;;;12.45;4.82;;;3.50;99.90;;;;;;4954712;29;20038;-85
2024/01/07 06:06:35;;;;;;;17.70;5.13;;;3.50;99.90;;;;;;4954606;29;20487;-86
2024/01/07 06:09:01;;;;;;;10.95;4.80;;;3.50;99.90;;;;;;4962912;28;20053;-86
2024/01/07 06:11:27;;;;;;;10.73;4.05;;;3.50;99.90;;;;;;4957890;28;20051;-86
2024/01/07 06:13:53;;;;;;;7.15;4.90;;;3.50;99.90;;;;;;4957867;28;20478;-86
2024/01/07 06:16:19;;;;;;;10.25;3.72;;;3.50;99.90;;;;;;4957624;28;20054;-86
2024/01/07 06:18:44;;;;;;;12.05;4.75;;;3.40;99.90;;;;;;4958301;28;20049;-85
2024/01/07 06:21:10;;;;;;;8.38;4.20;;;3.40;99.90;;;;;;4957851;28;20026;-86
2024/01/07 06:23:36;;;;;;;10.52;5.00;;;3.40;99.90;;;;;;4957817;28;20027;-86
2024/01/07 06:26:05;;;;;;;8.45;5.40;;;3.40;99.90;;;;;;4957672;28;20027;-86
2024/01/07 06:28:33;;;;;;;9.65;5.95;;;3.40;99.90;;;;;;4974684;28;20027;-86
2024/01/07 06:30:59;;;;;;;12.52;6.18;;;3.40;99.90;;;;;;4957090;28;20513;-86
2024/01/07 06:33:24;;;;;;;11.20;5.13;;;3.30;99.90;;;;;;4941462;28;20058;-86
2024/01/07 06:35:50;;;;;;;17.15;6.40;;;3.30;99.90;;;;;;4956811;28;20027;-85
2024/01/07 06:38:15;;;;;;;12.55;6.30;;;3.30;99.90;;;;;;4974540;28;20030;-86
2024/01/07 06:40:41;;;;;;;20.25;6.65;;;3.30;99.90;;;;;;4974503;28;20019;-86
2024/01/07 06:43:07;;;;;;;11.98;5.25;;;3.30;99.90;;;;;;4957099;28;20030;-86
2024/01/07 06:45:32;;;;;;;18.55;6.10;;;3.30;99.90;;;;;;4957171;28;20433;-86
2024/01/07 06:47:58;;;;;;;12.27;4.57;;;3.30;99.90;;;;;;4957459;28;20063;-86
2024/01/07 06:50:24;;;;;;;19.23;4.40;;;3.30;99.90;;;;;;4956907;28;20042;-86
2024/01/07 06:52:50;;;;;;;7.78;3.85;;;3.20;99.90;;;;;;4974315;28;20025;-86
2024/01/07 06:55:15;;;;;;;9.20;3.40;;;3.20;99.90;;;;;;4956935;28;20390;-86
2024/01/07 06:57:41;;;;;;;11.38;5.03;;;3.20;99.90;;;;;;4956946;28;20043;-85
2024/01/07 07:00:08;;;;;;;9.63;3.58;;;3.20;99.90;;;;;;4956790;28;20023;-86
2024/01/07 07:02:33;;;;;;;5.55;2.53;;;3.20;99.90;;;;;;4974378;28;20069;-86
2024/01/07 07:05:00;;;;;;;9.10;2.85;;;3.20;99.90;;;;;;4941030;28;20038;-86
2024/01/07 07:07:26;;;;;;;13.65;3.67;;;3.20;99.90;;;;;;4957050;28;20540;-86
2024/01/07 07:09:52;;;;;;;6.68;2.50;;;3.20;99.90;;;;;;4956849;28;20141;-85
2024/01/07 07:12:18;;;;;;;6.53;3.17;;;3.20;99.90;;;;;;4974594;28;20113;-86
2024/01/07 07:14:43;;;;;;;11.77;2.80;;;3.10;99.90;;;;;;4958143;28;20390;-86
2024/01/07 07:17:09;;;;;;;14.27;3.40;;;3.10;99.90;;;;;;4957787;28;20033;-86
2024/01/07 07:19:35;;;;;;;5.25;2.63;;;3.20;99.90;;;;;;4956976;28;20035;-85
2024/01/07 07:22:01;;;;;;;6.30;2.80;;;3.20;99.90;;;;;;4956931;28;20062;-86
2024/01/07 07:24:26;;;;;;;12.88;2.58;;;3.10;99.90;;;;;;4956533;28;20026;-86
2024/01/07 07:26:52;;;;;;;9.05;2.90;;;3.20;99.90;;;;;;4946694;29;20474;-89
2024/01/07 07:29:18;;;;;;;9.13;2.72;;;3.20;99.90;;;;;;4954133;29;20060;-86
2024/01/07 07:31:44;;;;;;;11.85;2.70;;;3.20;99.90;;;;;;4953571;29;20054;-86
2024/01/07 07:34:11;;;;;;;5.85;2.60;;;3.20;99.90;;;;;;4935560;29;20020;-86
2024/01/07 07:36:40;;;;;;;7.97;2.75;;;3.20;99.90;;;;;;4934832;29;20071;-86
2024/01/07 07:39:06;;;;;;;4.78;2.90;;;3.20;99.90;;;;;;4952940;29;20482;-85
2024/01/07 07:41:33;;;;;;;8.05;2.30;;;3.20;99.90;;;;;;4935853;29;20038;-86
2024/01/07 07:43:59;;;;;;;6.88;2.90;;;3.20;99.90;;;;;;4933196;29;20020;-87
2024/01/07 07:46:24;;;;;;;11.55;3.42;;;3.20;99.90;;;;;;4936374;29;20328;-86
2024/01/07 07:48:50;;;;;;;12.95;2.95;;;3.20;99.90;;;;;;4938159;29;20118;-86
2024/01/07 07:51:16;;;;;;;6.30;3.17;;;3.20;99.90;;;;;;4940299;29;20026;-87
2024/01/07 07:53:41;;;;;;;6.05;2.60;;;3.20;99.90;;;;;;4954736;29;20483;-87
2024/01/07 07:56:08;;;;;;;7.43;2.75;;;3.20;99.90;;;;;;4944909;29;20035;-85
2024/01/07 07:58:34;;;;;;;10.77;2.97;;;3.20;99.90;;;;;;4956537;29;20042;-86
2024/01/07 08:00:59;;;;;;;6.43;3.17;;;3.30;99.90;;;;;;4936133;29;20035;-86
2024/01/07 08:03:25;;;;;;;6.15;3.60;;;3.30;99.90;;;;;;4937972;29;20509;-85
2024/01/07 08:05:51;;;;;;;7.20;2.88;;;3.30;99.90;;;;;;4957921;29;20042;-85
2024/01/07 08:08:19;;;;;;;14.75;3.72;;;3.40;99.90;;;;;;4940486;28;20119;-86
2024/01/07 08:10:45;;;;;;;11.30;3.03;;;3.40;99.90;;;;;;4940594;29;20129;-86
2024/01/07 08:13:11;;;;;;;7.53;3.20;;;3.40;99.90;;;;;;4942733;29;20146;-86
2024/01/07 08:15:37;;;;;;;10.70;3.80;;;3.30;99.90;;;;;;4950091;29;20387;-86
2024/01/07 08:18:04;;;;;;;6.20;3.05;;;3.30;99.90;;;;;;4948070;29;20043;-85
2024/01/07 08:20:30;;;;;;;14.30;4.47;;;3.30;99.90;;;;;;4957602;29;20102;-87
2024/01/07 08:22:56;;;;;;;13.05;3.70;;;3.30;99.90;;;;;;4948640;29;20051;-86
2024/01/07 08:25:23;;;;;;;19.95;7.30;;;3.30;99.90;;;;;;4959055;29;20038;-85
2024/01/07 08:27:49;;;;;;;10.95;3.90;;;3.30;99.90;;;;;;4956980;29;20118;-86
2024/01/07 08:30:20;;;;;;;14.52;4.40;;;3.30;99.90;;;;;;4940607;29;20059;-86
2024/01/07 08:32:46;;;;;;;12.90;5.05;;;3.30;99.90;;;;;;4949623;29;20047;-87
2024/01/07 08:35:13;;;;;;;14.73;4.85;;;3.30;99.90;;;;;;4947140;29;20483;-86
2024/01/07 08:37:38;;;;;;;7.00;3.30;;;3.30;99.90;;;;;;4938642;29;20135;-86
2024/01/07 08:40:09;;;;;;;11.07;5.50;;;3.30;99.90;;;;;;4939490;29;20114;-87
2024/01/07 08:42:35;;;;;;;11.20;4.22;;;3.30;99.90;;;;;;4948464;29;20035;-87
2024/01/07 08:45:03;;;;;;;13.32;5.22;;;3.30;99.90;;;;;;4947883;29;20023;-87
2024/01/07 08:47:31;;;;;;;9.77;4.97;;;3.30;99.90;;;;;;4947553;29;20139;-86
2024/01/07 08:49:57;;;;;;;12.57;4.78;;;3.30;99.90;;;;;;4961863;28;20062;-86
2024/01/07 08:52:25;;;;;;;12.43;5.10;;;3.30;99.90;;;;;;4956264;29;20031;-86
2024/01/07 08:54:51;;;;;;;13.23;4.95;;;3.30;99.90;;;;;;4947730;29;20023;-87
2024/01/07 08:57:18;;;;;;;13.20;4.00;;;3.30;99.90;;;;;;4956975;28;20494;-87
2024/01/07 08:59:44;;;;;;;8.93;4.00;;;3.30;99.90;;;;;;4952071;29;20369;-87
2024/01/07 09:02:10;;;;;;;6.78;3.72;;;3.30;99.90;;;;;;4938845;29;20546;-86
2024/01/07 09:04:35;;;;;;;12.85;3.85;;;3.20;99.90;;;;;;4937401;29;20035;-86
2024/01/07 09:07:02;;;;;;;14.15;5.82;;;3.20;99.90;;;;;;4937427;29;20483;-87
2024/01/07 09:09:31;;;;;;;6.70;3.65;;;3.20;99.90;;;;;;4936791;29;20054;-87
2024/01/07 09:11:59;;;;;;;12.57;3.38;;;3.10;99.90;;;;;;4938335;29;20483;-86
2024/01/07 09:14:25;;;;;;;10.77;3.72;;;3.10;99.90;;;;;;4936059;29;20039;-85
2024/01/07 09:16:53;;;;;;;10.32;3.10;;;3.10;99.90;;;;;;4936624;29;20111;-86
2024/01/07 09:19:19;;;;;;;7.07;2.70;;;3.10;99.90;;;;;;4954874;28;20407;-85
2024/01/07 09:21:46;;;;;;;7.22;3.47;;;3.10;99.90;;;;;;4947115;28;20027;-85
2024/01/07 09:24:12;;;;;;;8.98;3.05;;;3.10;99.90;;;;;;4946879;28;20031;-85
2024/01/07 09:26:39;;;;;;;7.72;3.25;;;3.10;99.90;;;;;;4956400;28;20022;-86
2024/01/07 09:29:04;;;;;;;11.02;4.45;;;3.10;99.90;;;;;;4945889;29;20041;-86
2024/01/07 09:31:30;;;;;;;9.95;3.55;;;3.20;99.90;;;;;;4946701;28;20106;-85
2024/01/07 09:33:56;;;;;;;8.43;3.55;;;3.20;99.90;;;;;;4956314;28;20031;-86
2024/01/07 09:36:23;;;;;;;13.00;3.33;;;3.20;99.90;;;;;;4946713;28;20102;-86
2024/01/07 09:38:49;;;;;;;11.75;3.90;;;3.20;99.90;;;;;;4946242;28;20446;-85
2024/01/07 09:41:14;;;;;;;9.20;3.72;;;3.20;99.90;;;;;;4956012;29;20042;-85
2024/01/07 09:43:40;;;;;;;10.20;3.83;;;3.30;99.90;;;;;;4955887;28;20024;-85
2024/01/07 09:46:06;;;;;;;10.15;4.85;;;3.30;99.90;;;;;;4943665;29;20031;-86
2024/01/07 09:48:32;;;;;;;13.13;4.47;;;3.40;99.90;;;;;;4946274;29;20027;-86
2024/01/07 09:51:00;;;;;;;11.02;3.60;;;3.40;99.90;;;;;;4937172;28;20031;-85
2024/01/07 09:53:32;;;;;;;8.13;3.70;;;3.40;99.90;;;;;;4937534;29;20024;-85
2024/01/07 09:56:22;;;;;;;14.27;3.97;;;3.40;99.90;;;;;;4949462;29;20035;-85
2024/01/07 09:58:49;;;;;;;11.95;3.80;;;3.40;99.90;;;;;;4947861;29;20058;-86
2024/01/07 10:01:19;;;;;;;5.88;2.70;;;3.50;99.90;;;;;;4952262;29;20023;-87
2024/01/07 10:03:45;;;;;;;9.63;3.17;;;3.50;99.90;;;;;;4945848;29;20084;-85
2024/01/07 10:06:11;;;;;;;5.68;2.83;;;3.50;99.90;;;;;;4942372;29;20038;-85
2024/01/07 10:08:39;;;;;;;6.22;2.63;;;3.60;99.90;;;;;;4955844;28;20055;-86
2024/01/07 10:11:05;;;;;;;5.82;2.72;;;3.60;99.90;;;;;;4931142;29;20031;-86
2024/01/07 10:13:32;;;;;;;9.60;3.90;;;3.60;99.90;;;;;;4937660;29;20027;-86
2024/01/07 10:15:58;;;;;;;8.68;3.95;;;3.70;99.90;;;;;;4938186;29;20019;-85
2024/01/07 10:18:25;;;;;;;10.05;4.20;;;3.70;99.90;;;;;;4936919;29;20515;-86
2024/01/07 10:20:50;;;;;;;8.20;3.20;;;3.70;99.90;;;;;;4937640;29;20034;-86
2024/01/07 10:23:19;;;;;;;5.55;2.45;;;3.70;99.90;;;;;;4954691;29;20382;-87
2024/01/07 10:25:45;;;;;;;4.40;2.33;;;3.70;99.90;;;;;;4936015;29;20024;-86
2024/01/07 10:28:11;;;;;;;5.85;2.35;;;3.80;99.90;;;;;;4951963;29;20031;-86
2024/01/07 10:30:40;;;;;;;3.83;2.10;;;3.80;99.90;;;;;;4953227;29;20031;-86
2024/01/07 10:33:07;;;;;;;9.98;3.03;;;3.80;99.90;;;;;;4940301;28;20027;-86
2024/01/07 10:35:34;;;;;;;5.90;2.10;;;3.80;99.90;;;;;;4959544;28;20102;-87
2024/01/07 10:38:02;;;;;;;5.28;1.85;;;3.80;99.90;;;;;;4945286;28;20026;-87
2024/01/07 10:40:34;;;;;;;5.45;1.80;;;3.80;99.90;;;;;;4962671;28;20019;-87
2024/01/07 10:42:59;;;;;;;4.50;1.40;;;3.80;99.90;;;;;;4946174;29;20023;-87
2024/01/07 10:45:25;;;;;;;3.95;1.85;;;3.80;99.90;;;;;;4937862;29;20082;-86
2024/01/07 10:47:55;;;;;;;3.75;1.70;;;3.80;99.90;;;;;;4937721;29;20513;-87
2024/01/07 10:50:22;;;;;;;4.53;1.30;;;3.80;99.90;;;;;;4952009;28;20501;-87
2024/01/07 10:52:58;;;;;;;3.97;1.48;;;3.90;99.90;;;;;;4952877;28;20317;-89
2024/01/07 10:55:30;;;;;;;5.63;1.50;;;3.90;99.90;;;;;;4954461;28;20070;-87
2024/01/07 10:57:58;;;;;;;8.15;2.55;;;3.90;99.90;;;;;;4961727;28;20074;-86
2024/01/07 11:00:24;;;;;;;9.48;2.78;;;3.90;99.90;;;;;;4959675;29;20071;-86
2024/01/07 11:03:11;;;;;;;2.35;1.30;;;3.90;99.90;;;;;;4955069;29;20057;-88
2024/01/07 11:06:13;;;;;;;5.38;1.40;;;3.90;99.90;;;;;;4951856;29;20118;-87
2024/01/07 11:08:56;;;;;;;5.05;1.42;;;3.90;99.90;;;;;;4853231;29;20041;-87
2024/01/07 11:11:36;;;;;;;1.25;0.98;;;4.00;99.90;;;;;;4843810;29;20074;-88
2024/01/07 11:14:02;;;;;;;3.90;1.50;;;4.00;99.90;;;;;;4839927;29;20026;-87
2024/01/07 11:16:43;;;;;;;3.17;1.38;;;4.00;99.90;;;;;;4843219;29;20034;-87
2024/01/07 11:19:09;;;;;;;4.80;1.58;;;4.10;99.90;;;;;;4844767;29;20451;-87
2024/01/07 11:21:38;;;;;;;3.95;1.60;;;4.10;99.90;;;;;;4844425;29;20026;-87
2024/01/07 11:24:04;;;;;;;11.38;1.70;;;4.10;99.90;;;;;;4837765;29;20037;-87
2024/01/07 11:26:30;;;;;;;7.53;1.40;;;4.10;99.90;;;;;;4841534;29;20038;-87
2024/01/07 11:28:57;;;;;;;5.05;1.50;;;4.10;99.90;;;;;;4843493;29;20064;-87
2024/01/07 11:31:47;;;;;;;5.95;1.70;;;4.10;99.90;;;;;;4858869;29;20037;-85
2024/01/07 11:34:53;;;;;;;4.33;1.80;;;4.10;99.90;;;;;;4841936;29;20036;-88
2024/01/07 11:37:20;;;;;;;10.57;2.33;;;4.10;99.90;;;;;;4856044;29;20038;-88
2024/01/07 11:39:49;;;;;;;6.88;2.20;;;4.10;99.90;;;;;;4844846;29;20173;-85
2024/01/07 11:42:15;;;;;;;4.50;1.80;;;4.10;99.90;;;;;;4845774;29;20121;-86
2024/01/07 11:44:54;;;;;;;4.68;2.17;;;4.10;99.90;;;;;;4870083;29;20513;-86
2024/01/07 11:47:20;;;;;;;8.18;3.45;;;4.10;99.90;;;;;;4918488;29;20027;-86
2024/01/07 11:49:46;;;;;;;6.43;2.30;;;4.10;99.90;;;;;;4917830;29;20028;-87
2024/01/07 11:52:13;;;;;;;9.27;3.22;;;4.10;99.90;;;;;;4917860;29;20553;-86
2024/01/07 11:54:39;;;;;;;6.18;3.08;;;4.00;99.90;;;;;;4934558;29;20075;-84
2024/01/07 11:57:06;;;;;;;5.07;2.85;;;4.00;99.90;;;;;;4917151;29;20031;-86
2024/01/07 11:59:32;;;;;;;6.20;3.63;;;4.00;99.90;;;;;;4918027;29;20091;-87
2024/01/07 12:02:00;;;;;;;7.60;3.22;;;4.00;99.90;;;;;;4918663;29;20090;-86
2024/01/07 12:04:26;;;;;;;6.15;3.40;;;4.10;99.90;;;;;;4916692;29;20475;-87
2024/01/07 12:06:53;;;;;;;7.20;4.07;;;4.10;99.90;;;;;;4918573;29;20047;-86
2024/01/07 12:09:19;;;;;;;9.00;3.83;;;4.10;99.90;;;;;;4942695;29;20440;-87
2024/01/07 12:11:45;;;;;;;11.32;3.65;;;4.10;99.90;;;;;;4937983;29;20036;-87
2024/01/07 12:14:11;;;;;;;8.68;4.20;;;4.00;99.90;;;;;;4937481;29;20038;-87
2024/01/07 12:16:44;;;;;;;8.35;3.80;;;4.00;99.90;;;;;;4928887;29;20038;-88
2024/01/07 12:19:11;;;;;;;7.13;4.28;;;4.00;99.90;;;;;;4934406;29;20107;-87
2024/01/07 12:21:38;;;;;;;9.55;3.65;;;4.00;99.90;;;;;;4955294;29;20381;-87
2024/01/07 12:24:04;;;;;;;11.57;4.00;;;4.00;99.90;;;;;;4938200;29;20113;-86
2024/01/07 12:26:32;;;;;;;10.88;3.80;;;4.00;99.90;;;;;;4937793;29;20026;-87
2024/01/07 12:29:03;;;;;;;11.18;4.43;;;4.00;99.90;;;;;;4937896;29;20130;-86
2024/01/07 12:31:33;;;;;;;9.25;3.80;;;4.00;99.90;;;;;;4938408;29;20123;-88
2024/01/07 12:33:59;;;;;;;10.18;3.78;;;4.00;99.90;;;;;;4938026;29;20517;-87
2024/01/07 12:36:25;;;;;;;15.45;4.47;;;4.10;99.90;;;;;;4938414;29;20110;-89
2024/01/07 12:38:53;;;;;;;6.85;3.83;;;4.10;99.90;;;;;;4938979;29;20023;-86
2024/01/07 12:41:23;;;;;;;12.75;3.95;;;4.10;99.90;;;;;;4955297;29;20082;-88
2024/01/07 12:43:50;;;;;;;5.95;3.80;;;4.10;99.90;;;;;;4943303;29;20090;-86
2024/01/07 12:46:16;;;;;;;8.52;4.05;;;4.20;99.90;;;;;;4955053;29;20024;-87
2024/01/07 12:48:42;;;;;;;8.20;4.10;;;4.20;99.90;;;;;;4943691;29;20066;-87
2024/01/07 12:51:07;;;;;;;5.78;3.88;;;4.20;99.90;;;;;;4957511;29;20063;-87